createdAt,value
2024-03-02T00:01:12.369Z,7.25
2024-03-02T00:03:40.763Z,7.12
2024-03-02T00:06:09.045Z,7.31
2024-03-02T00:08:37.549Z,7.53
2024-03-02T00:11:05.949Z,7.48
2024-03-02T00:13:36.892Z,7.34
2024-03-02T00:16:07.682Z,7.56
2024-03-02T00:18:37.964Z,7.98
2024-03-02T00:21:10.493Z,7.86
2024-03-02T00:23:39.807Z,7.49
2024-03-02T00:26:09.796Z,7.41
2024-03-02T00:28:39.800Z,7.50
2024-03-02T00:31:09.706Z,7.47
2024-03-02T00:33:39.986Z,7.50
2024-03-02T00:36:09.449Z,7.36
2024-03-02T00:38:47.192Z,7.43
2024-03-02T00:41:21.056Z,7.48
2024-03-02T00:43:59.585Z,7.72
2024-03-02T00:46:30.805Z,7.79
2024-03-02T00:49:01.410Z,7.71
2024-03-02T00:51:32.072Z,7.38
2024-03-02T00:54:02.010Z,7.51
2024-03-02T00:56:30.629Z,7.46
2024-03-02T00:59:00.244Z,7.74
2024-03-02T01:01:28.553Z,7.49
2024-03-02T01:03:56.867Z,7.23
2024-03-02T01:06:25.583Z,7.27
2024-03-02T01:08:54.127Z,7.19
2024-03-02T01:11:23.942Z,7.35
2024-03-02T01:13:53.730Z,7.46
2024-03-02T01:16:23.924Z,7.26
2024-03-02T01:18:52.402Z,7.30
2024-03-02T01:21:20.775Z,7.16
2024-03-02T01:23:49.187Z,7.17
2024-03-02T01:26:18.268Z,7.34
2024-03-02T01:28:46.477Z,7.38
2024-03-02T01:31:14.673Z,7.45
2024-03-02T01:33:44.237Z,7.58
2024-03-02T01:36:12.503Z,7.69
2024-03-02T01:38:40.731Z,7.60
2024-03-02T01:41:09.323Z,7.51
2024-03-02T01:43:40.286Z,7.32
2024-03-02T01:46:10.353Z,7.46
2024-03-02T01:48:38.746Z,7.52
2024-03-02T01:51:08.953Z,7.55
2024-03-02T01:53:37.379Z,7.48
2024-03-02T01:56:06.295Z,7.21
2024-03-02T01:58:34.555Z,7.35
2024-03-02T02:01:03.045Z,7.42
2024-03-02T02:03:31.444Z,7.22
2024-03-02T02:06:00.099Z,7.42
2024-03-02T02:08:29.598Z,7.52
2024-03-02T02:10:58.033Z,7.64
2024-03-02T02:13:26.356Z,7.67
2024-03-02T02:15:55.002Z,7.58
2024-03-02T02:18:23.492Z,7.30
2024-03-02T02:20:51.783Z,7.49
2024-03-02T02:23:21.299Z,7.75
2024-03-02T02:25:49.602Z,7.67
2024-03-02T02:28:19.105Z,7.56
2024-03-02T02:30:47.385Z,7.75
2024-03-02T02:33:15.739Z,7.75
2024-03-02T02:35:44.054Z,7.83
2024-03-02T02:38:12.302Z,7.78
2024-03-02T02:40:43.740Z,7.91
2024-03-02T02:43:11.940Z,7.99
2024-03-02T02:45:40.150Z,8.02
2024-03-02T02:48:08.981Z,8.07
2024-03-02T02:50:37.599Z,8.14
2024-03-02T02:53:06.190Z,8.10
2024-03-02T02:55:34.376Z,8.15
2024-03-02T02:58:03.977Z,8.21
2024-03-02T03:00:32.269Z,8.23
2024-03-02T03:03:00.534Z,8.31
2024-03-02T03:05:28.713Z,8.48
2024-03-02T03:07:56.907Z,8.58
2024-03-02T03:10:27.169Z,8.66
2024-03-02T03:12:57.366Z,8.57
2024-03-02T03:15:27.147Z,8.62
2024-03-02T03:17:55.664Z,8.61
2024-03-02T03:20:24.876Z,8.51
2024-03-02T03:22:53.216Z,8.44
2024-03-02T03:25:21.417Z,8.45
2024-03-02T03:27:49.739Z,8.44
2024-03-02T03:30:18.073Z,8.50
2024-03-02T03:32:49.231Z,8.49
2024-03-02T03:35:17.466Z,8.46
2024-03-02T03:37:45.748Z,8.47
2024-03-02T03:40:15.510Z,8.45
2024-03-02T03:42:43.853Z,8.36
2024-03-02T03:45:12.204Z,8.31
2024-03-02T03:47:40.466Z,8.36
2024-03-02T03:50:10.805Z,8.42
2024-03-02T03:52:39.008Z,8.37
2024-03-02T03:55:07.859Z,8.65
2024-03-02T03:57:36.402Z,8.40
2024-03-02T04:00:05.607Z,8.51
2024-03-02T04:02:40.646Z,8.54
2024-03-02T04:05:12.329Z,8.58
2024-03-02T04:07:41.910Z,8.59
2024-03-02T04:10:11.157Z,8.71
2024-03-02T04:12:39.580Z,8.45
2024-03-02T04:15:08.267Z,8.48
2024-03-02T04:17:37.111Z,8.53
2024-03-02T04:20:07.506Z,8.58
2024-03-02T04:22:37.647Z,8.69
2024-03-02T04:25:08.400Z,8.60
2024-03-02T04:27:36.914Z,8.87
2024-03-02T04:30:07.772Z,8.79
2024-03-02T04:32:37.393Z,8.68
2024-03-02T04:35:06.605Z,8.65
2024-03-02T04:37:37.927Z,8.87
2024-03-02T04:40:09.130Z,8.79
2024-03-02T04:42:37.689Z,8.81
2024-03-02T04:45:06.635Z,8.79
2024-03-02T04:47:34.854Z,8.78
2024-03-02T04:50:03.714Z,8.85
2024-03-02T04:52:31.960Z,8.75
2024-03-02T04:55:30.705Z,8.61
2024-03-02T04:57:59.065Z,8.52
2024-03-02T05:00:27.314Z,8.65
2024-03-02T05:02:55.613Z,8.49
2024-03-02T05:05:23.865Z,8.57
2024-03-02T05:07:52.130Z,8.41
2024-03-02T05:10:21.776Z,8.49
2024-03-02T05:12:58.160Z,8.65
2024-03-02T05:15:26.677Z,8.66
2024-03-02T05:17:55.232Z,8.72
2024-03-02T05:20:23.460Z,8.62
2024-03-02T05:22:51.780Z,8.67
2024-03-02T05:25:21.423Z,8.71
2024-03-02T05:27:49.713Z,8.60
2024-03-02T05:30:18.093Z,8.62
2024-03-02T05:32:46.432Z,8.53
2024-03-02T05:35:14.854Z,8.69
2024-03-02T05:37:43.045Z,8.76
2024-03-02T05:40:12.378Z,8.87
2024-03-02T05:42:42.695Z,8.84
2024-03-02T05:45:11.320Z,9.10
2024-03-02T05:47:39.665Z,9.06
2024-03-02T05:50:09.174Z,8.74
2024-03-02T05:52:37.357Z,9.06
2024-03-02T05:55:06.614Z,9.16
2024-03-02T05:57:48.531Z,8.89
2024-03-02T06:00:19.222Z,8.91
2024-03-02T06:02:47.689Z,8.86
2024-03-02T06:05:16.191Z,8.63
2024-03-02T06:07:45.165Z,8.69
2024-03-02T06:10:14.433Z,8.73
2024-03-02T06:12:43.174Z,8.75
2024-03-02T06:15:11.970Z,8.81
2024-03-02T06:17:41.564Z,9.03
2024-03-02T06:20:11.092Z,8.93
2024-03-02T06:22:39.357Z,9.00
2024-03-02T06:25:08.272Z,9.01
2024-03-02T06:27:35.991Z,8.98
2024-03-02T06:30:05.378Z,9.04
2024-03-02T06:32:33.809Z,9.06
2024-03-02T06:35:05.104Z,9.20
2024-03-02T06:37:33.325Z,9.15
2024-03-02T06:40:01.560Z,9.23
2024-03-02T06:42:34.209Z,9.27
2024-03-02T06:45:03.899Z,9.20
2024-03-02T06:47:32.390Z,9.25
2024-03-02T06:50:00.850Z,9.14
2024-03-02T06:52:30.525Z,9.08
2024-03-02T06:54:58.885Z,9.07
2024-03-02T06:57:27.375Z,9.04
2024-03-02T06:59:59.550Z,9.20
2024-03-02T07:02:27.876Z,9.15
2024-03-02T07:04:56.269Z,9.09
2024-03-02T07:07:24.484Z,9.29
2024-03-02T07:09:54.062Z,9.29
2024-03-02T07:12:22.410Z,9.33
2024-03-02T07:15:12.350Z,9.29
2024-03-02T07:17:40.702Z,9.22
2024-03-02T07:20:09.590Z,9.23
2024-03-02T07:22:40.486Z,9.17
2024-03-02T07:26:54.718Z,8.95
2024-03-02T07:28:00.044Z,9.00
2024-03-02T07:30:29.007Z,9.07
2024-03-02T07:32:58.005Z,9.24
2024-03-02T07:35:28.428Z,9.26
2024-03-02T07:37:56.790Z,9.42
2024-03-02T07:40:27.255Z,9.57
2024-03-02T07:42:56.021Z,9.65
2024-03-02T07:45:24.394Z,9.77
2024-03-02T07:47:52.850Z,9.46
2024-03-02T07:50:21.212Z,9.45
2024-03-02T07:52:49.437Z,9.59
2024-03-02T07:55:17.850Z,9.41
2024-03-02T07:57:47.454Z,9.44
2024-03-02T08:00:16.688Z,9.41
2024-03-02T08:02:45.007Z,9.40
2024-03-02T08:05:13.371Z,9.41
2024-03-02T08:07:42.065Z,9.45
2024-03-02T08:10:11.094Z,9.43
2024-03-02T08:12:39.468Z,9.59
2024-03-02T08:15:09.853Z,9.44
2024-03-02T08:17:38.698Z,9.40
2024-03-02T08:20:09.273Z,9.55
2024-03-02T08:22:37.574Z,9.29
2024-03-02T08:25:06.721Z,9.40
2024-03-02T08:27:35.171Z,9.40
2024-03-02T08:30:07.337Z,9.34
2024-03-02T08:32:36.937Z,9.48
2024-03-02T08:35:06.599Z,9.59
2024-03-02T08:37:34.867Z,9.65
2024-03-02T08:40:05.208Z,9.87
2024-03-02T08:42:33.638Z,9.78
2024-03-02T08:45:02.296Z,9.86
2024-03-02T08:47:30.627Z,9.74
2024-03-02T08:50:01.793Z,9.96
2024-03-02T08:52:30.515Z,10.06
2024-03-02T08:54:58.885Z,10.01
2024-03-02T08:57:27.221Z,10.30
2024-03-02T08:59:55.657Z,10.67
2024-03-02T09:02:24.300Z,10.60
2024-03-02T09:04:52.962Z,10.90
2024-03-02T09:07:22.486Z,10.80
2024-03-02T09:09:50.708Z,10.96
2024-03-02T09:12:18.998Z,11.36
2024-03-02T09:14:48.097Z,11.16
2024-03-02T09:17:16.407Z,11.16
2024-03-02T09:19:44.674Z,10.74
2024-03-02T09:22:12.981Z,11.30
2024-03-02T09:24:42.629Z,11.36
2024-03-02T09:27:10.890Z,11.70
2024-03-02T09:29:39.488Z,12.02
2024-03-02T09:32:09.283Z,11.83
2024-03-02T09:34:37.489Z,11.79
2024-03-02T09:37:06.119Z,11.92
2024-03-02T09:39:34.531Z,11.62
2024-03-02T09:42:06.425Z,11.71
2024-03-02T09:44:35.388Z,12.11
2024-03-02T09:47:03.722Z,11.96
2024-03-02T09:49:32.013Z,11.68
2024-03-02T09:52:00.384Z,11.63
2024-03-02T09:54:29.900Z,11.67
2024-03-02T09:56:58.199Z,11.62
2024-03-02T09:59:29.126Z,11.66
2024-03-02T10:01:59.308Z,11.19
2024-03-02T10:04:28.542Z,11.33
2024-03-02T10:07:13.915Z,11.29
2024-03-02T10:09:42.390Z,11.84
2024-03-02T10:12:12.595Z,11.54
2024-03-02T10:14:42.804Z,11.49
2024-03-02T10:17:12.116Z,11.79
2024-03-02T10:19:41.603Z,11.57
2024-03-02T10:22:12.192Z,11.69
2024-03-02T10:24:41.833Z,11.11
2024-03-02T10:27:12.335Z,11.54
2024-03-02T10:29:42.544Z,11.49
2024-03-02T10:32:12.339Z,11.75
2024-03-02T10:34:43.111Z,11.50
2024-03-02T10:37:13.005Z,11.65
2024-03-02T10:39:42.281Z,11.56
2024-03-02T10:42:11.467Z,12.32
2024-03-02T10:44:40.650Z,11.78
2024-03-02T10:47:11.282Z,11.97
2024-03-02T10:49:40.505Z,11.99
2024-03-02T10:52:10.435Z,11.48
2024-03-02T10:54:41.019Z,11.83
2024-03-02T10:57:11.516Z,11.91
2024-03-02T10:59:50.693Z,11.87
2024-03-02T11:02:23.434Z,12.27
2024-03-02T11:04:52.816Z,12.29
2024-03-02T11:07:23.219Z,12.88
2024-03-02T11:10:09.561Z,12.32
2024-03-02T11:12:41.255Z,12.00
2024-03-02T11:15:12.779Z,12.32
2024-03-02T11:17:42.941Z,13.16
2024-03-02T11:20:12.318Z,12.62
2024-03-02T11:22:40.694Z,12.31
2024-03-02T11:25:25.272Z,12.44
2024-03-02T11:28:06.871Z,12.41
2024-03-02T11:30:55.020Z,12.15
2024-03-02T11:33:30.705Z,12.16
2024-03-02T11:36:00.664Z,11.97
2024-03-02T11:38:36.239Z,12.47
2024-03-02T11:41:08.338Z,12.90
2024-03-02T11:43:41.312Z,13.37
2024-03-02T11:46:09.703Z,13.64
2024-03-02T11:48:41.710Z,13.56
2024-03-02T11:51:09.963Z,13.10
2024-03-02T11:53:41.338Z,13.38
2024-03-02T11:56:12.869Z,12.83
2024-03-02T11:58:42.524Z,12.96
2024-03-02T12:01:12.401Z,13.10
2024-03-02T12:03:42.109Z,13.09
2024-03-02T12:06:11.693Z,12.74
2024-03-02T12:08:41.601Z,13.02
2024-03-02T12:11:09.833Z,12.93
2024-03-02T12:13:38.064Z,12.83
2024-03-02T12:16:07.590Z,12.90
2024-03-02T12:18:36.035Z,12.93
2024-03-02T12:21:07.952Z,13.55
2024-03-02T12:23:36.739Z,13.17
2024-03-02T12:26:05.630Z,14.03
2024-03-02T12:28:35.204Z,14.14
2024-03-02T12:31:03.861Z,14.34
2024-03-02T12:33:32.741Z,14.51
2024-03-02T12:36:01.184Z,13.99
2024-03-02T12:38:30.732Z,13.53
2024-03-02T12:40:59.076Z,14.00
2024-03-02T12:43:32.349Z,14.08
2024-03-02T12:46:00.757Z,14.09
2024-03-02T12:48:29.125Z,13.90
2024-03-02T12:50:57.527Z,13.25
2024-03-02T12:53:25.882Z,13.05
2024-03-02T12:55:56.962Z,13.31
2024-03-02T12:58:25.404Z,13.72
2024-03-02T13:01:07.879Z,13.16
2024-03-02T13:03:37.638Z,13.10
2024-03-02T13:06:06.844Z,13.54
2024-03-02T13:08:35.269Z,13.49
2024-03-02T13:11:08.220Z,13.26
2024-03-02T13:13:36.752Z,13.49
2024-03-02T13:16:07.524Z,13.40
2024-03-02T13:18:36.086Z,12.93
2024-03-02T13:21:05.708Z,13.32
2024-03-02T13:23:33.908Z,13.24
2024-03-02T13:26:02.705Z,13.46
2024-03-02T13:28:32.451Z,13.24
2024-03-02T13:31:00.698Z,12.78
2024-03-02T13:33:29.189Z,13.01
2024-03-02T13:35:57.455Z,13.42
2024-03-02T13:38:25.658Z,13.62
2024-03-02T13:40:53.980Z,13.47
2024-03-02T13:43:22.302Z,13.67
2024-03-02T13:45:53.171Z,13.51
2024-03-02T13:48:21.702Z,13.06
2024-03-02T13:50:50.379Z,12.85
2024-03-02T13:53:18.913Z,12.84
2024-03-02T13:55:47.877Z,12.82
2024-03-02T13:58:16.297Z,13.10
2024-03-02T14:00:46.526Z,12.99
2024-03-02T14:03:16.938Z,12.96
2024-03-02T14:05:47.069Z,12.73
2024-03-02T14:08:15.272Z,12.91
2024-03-02T14:10:44.166Z,12.63
2024-03-02T14:13:12.424Z,12.49
2024-03-02T14:15:40.945Z,12.55
2024-03-02T14:18:11.039Z,12.93
2024-03-02T14:20:42.586Z,13.23
2024-03-02T14:23:12.301Z,13.09
2024-03-02T14:25:40.514Z,13.33
2024-03-02T14:28:27.166Z,13.47
2024-03-02T14:30:56.937Z,13.43
2024-03-02T14:33:25.255Z,13.58
2024-03-02T14:35:55.318Z,13.56
2024-03-02T14:38:23.668Z,13.54
2024-03-02T14:40:53.177Z,13.50
2024-03-02T14:43:22.584Z,13.47
2024-03-02T14:45:51.718Z,12.71
2024-03-02T14:48:20.038Z,12.67
2024-03-02T14:50:48.295Z,12.71
2024-03-02T14:53:17.821Z,12.86
2024-03-02T14:55:46.131Z,13.00
2024-03-02T14:58:14.425Z,13.32
2024-03-02T15:00:42.772Z,13.11
2024-03-02T15:03:12.637Z,12.56
2024-03-02T15:05:41.117Z,12.37
2024-03-02T15:08:09.525Z,12.45
2024-03-02T15:10:39.045Z,12.48
2024-03-02T15:13:07.326Z,12.43
2024-03-02T15:15:35.846Z,12.41
2024-03-02T15:18:06.536Z,12.35
2024-03-02T15:20:35.201Z,12.27
2024-03-02T15:23:03.493Z,12.25
2024-03-02T15:25:31.728Z,12.40
2024-03-02T15:28:01.520Z,12.45
2024-03-02T15:30:29.878Z,12.48
2024-03-02T15:32:58.525Z,12.31
2024-03-02T15:35:26.905Z,12.15
2024-03-02T15:37:55.352Z,12.02
2024-03-02T15:40:23.636Z,12.02
2024-03-02T15:42:51.966Z,12.01
2024-03-02T15:45:21.584Z,11.99
2024-03-02T15:47:49.990Z,12.06
2024-03-02T15:50:18.458Z,11.89
2024-03-02T15:52:48.025Z,11.97
2024-03-02T15:55:16.877Z,11.94
2024-03-02T15:57:45.422Z,11.93
2024-03-02T16:00:15.056Z,11.78
2024-03-02T16:02:44.608Z,11.83
2024-03-02T16:05:14.237Z,11.70
2024-03-02T16:07:42.592Z,11.74
2024-03-02T16:10:11.145Z,11.72
2024-03-02T16:12:39.482Z,11.56
2024-03-02T16:15:09.866Z,11.39
2024-03-02T16:17:38.092Z,11.35
2024-03-02T16:20:11.291Z,11.44
2024-03-02T16:22:39.632Z,11.45
2024-03-02T16:25:09.000Z,11.39
2024-03-02T16:27:37.337Z,11.48
2024-03-02T16:30:06.748Z,11.39
2024-03-02T16:32:35.292Z,11.39
2024-03-02T16:35:03.654Z,11.43
2024-03-02T16:37:33.700Z,11.57
2024-03-02T16:40:02.373Z,11.63
2024-03-02T16:42:30.831Z,11.43
2024-03-02T16:44:59.082Z,11.31
2024-03-02T16:47:27.715Z,11.27
2024-03-02T16:49:58.990Z,11.23
2024-03-02T16:52:29.799Z,11.27
2024-03-02T16:55:03.745Z,11.13
2024-03-02T16:57:33.214Z,11.02
2024-03-02T17:00:01.786Z,10.89
2024-03-02T17:02:30.004Z,10.81
2024-03-02T17:04:58.361Z,11.03
2024-03-02T17:07:30.009Z,11.01
2024-03-02T17:10:00.433Z,11.23
2024-03-02T17:12:28.966Z,11.16
2024-03-02T17:14:57.705Z,10.95
2024-03-02T17:17:25.961Z,10.87
2024-03-02T17:19:54.280Z,11.10
2024-03-02T17:22:22.535Z,11.36
2024-03-02T17:24:50.757Z,11.21
2024-03-02T17:27:20.551Z,11.25
2024-03-02T17:29:48.769Z,11.37
2024-03-02T17:32:16.989Z,11.19
2024-03-02T17:34:45.247Z,10.82
2024-03-02T17:37:13.729Z,10.78
2024-03-02T17:39:42.056Z,10.19
2024-03-02T17:42:10.591Z,10.09
2024-03-02T17:44:40.237Z,9.94
2024-03-02T17:47:08.553Z,9.92
2024-03-02T17:49:36.842Z,10.10
2024-03-02T17:52:05.696Z,10.08
2024-03-02T17:54:35.081Z,10.31
2024-03-02T17:57:03.909Z,10.36
2024-03-02T17:59:32.121Z,10.48
2024-03-02T18:02:03.620Z,10.32
2024-03-02T18:04:31.904Z,10.82
2024-03-02T18:07:00.410Z,10.35
2024-03-02T18:09:29.221Z,10.21
2024-03-02T18:11:57.581Z,10.00
2024-03-02T18:14:26.089Z,9.90
2024-03-02T18:16:54.371Z,9.65
2024-03-02T18:19:24.560Z,9.48
2024-03-02T18:21:52.871Z,9.51
2024-03-02T18:24:24.295Z,9.56
2024-03-02T18:26:52.579Z,9.56
2024-03-02T18:29:22.275Z,9.37
2024-03-02T18:31:50.555Z,9.40
2024-03-02T18:34:18.814Z,9.48
2024-03-02T18:36:48.453Z,9.44
2024-03-02T18:39:16.712Z,9.46
2024-03-02T18:41:45.024Z,9.36
2024-03-02T18:44:13.314Z,9.27
2024-03-02T18:46:41.773Z,9.37
2024-03-02T18:49:10.477Z,9.30
2024-03-02T18:51:40.413Z,9.44
2024-03-02T18:54:12.734Z,9.39
2024-03-02T18:56:41.039Z,9.31
2024-03-02T18:59:09.567Z,9.10
2024-03-02T19:01:37.913Z,8.72
2024-03-02T19:04:07.147Z,8.85
2024-03-02T19:06:35.586Z,8.77
2024-03-02T19:09:03.840Z,8.82
2024-03-02T19:11:33.467Z,8.72
2024-03-02T19:14:01.696Z,8.49
2024-03-02T19:16:29.901Z,8.71
2024-03-02T19:18:58.734Z,8.67
2024-03-02T19:21:27.024Z,8.67
2024-03-02T19:23:55.371Z,8.68
2024-03-02T19:26:23.714Z,8.66
2024-03-02T19:28:53.737Z,8.74
2024-03-02T19:31:22.122Z,8.75
2024-03-02T19:33:50.397Z,8.80
2024-03-02T19:36:18.680Z,8.87
2024-03-02T19:38:46.962Z,8.89
2024-03-02T19:41:16.039Z,8.64
2024-03-02T19:43:44.312Z,8.40
2024-03-02T19:46:14.286Z,8.07
2024-03-02T19:48:43.269Z,7.96
2024-03-02T19:51:11.673Z,7.88
2024-03-02T19:53:40.027Z,7.94
2024-03-02T19:56:08.356Z,8.33
2024-03-02T19:58:37.240Z,8.68
2024-03-02T20:01:05.816Z,8.73
2024-03-02T20:03:35.559Z,8.79
2024-03-02T20:06:03.990Z,8.71
2024-03-02T20:08:32.739Z,8.71
2024-03-02T20:11:04.234Z,8.68
2024-03-02T20:13:32.475Z,8.57
2024-03-02T20:16:01.094Z,8.46
2024-03-02T20:18:29.296Z,8.33
2024-03-02T20:20:58.822Z,7.99
2024-03-02T20:23:27.287Z,8.27
2024-03-02T20:25:58.881Z,8.04
2024-03-02T20:28:27.239Z,7.66
2024-03-02T20:30:55.536Z,7.85
2024-03-02T20:33:23.954Z,8.19
2024-03-02T20:35:52.224Z,7.92
2024-03-02T20:38:21.823Z,7.91
2024-03-02T20:40:52.224Z,7.69
2024-03-02T20:43:20.591Z,7.42
2024-03-02T20:45:49.030Z,7.50
2024-03-02T20:48:19.048Z,7.75
2024-03-02T20:50:49.601Z,7.61
2024-03-02T20:53:18.068Z,7.65
2024-03-02T20:55:47.583Z,7.62
2024-03-02T20:58:16.937Z,7.94
2024-03-02T21:00:45.624Z,7.76
2024-03-02T21:03:13.939Z,7.59
2024-03-02T21:05:42.156Z,7.27
2024-03-02T21:08:10.907Z,7.08
2024-03-02T21:10:39.141Z,7.18
2024-03-02T21:13:08.742Z,7.00
2024-03-02T21:15:37.032Z,7.04
2024-03-02T21:18:05.493Z,7.10
2024-03-02T21:20:33.781Z,7.40
2024-03-02T21:23:02.029Z,7.33
2024-03-02T21:25:35.003Z,7.46
2024-03-02T21:28:03.262Z,7.37
2024-03-02T21:30:35.821Z,7.10
2024-03-02T21:33:04.888Z,7.33
2024-03-02T21:35:33.596Z,7.30
2024-03-02T21:38:03.878Z,7.42
2024-03-02T21:40:33.121Z,7.02
2024-03-02T21:43:01.711Z,6.85
2024-03-02T21:45:30.023Z,7.24
2024-03-02T21:47:59.709Z,6.94
2024-03-02T21:50:29.966Z,6.71
2024-03-02T21:52:59.744Z,6.85
2024-03-02T21:55:28.109Z,7.12
2024-03-02T21:57:56.399Z,7.05
2024-03-02T22:00:25.330Z,6.85
2024-03-02T22:02:56.647Z,6.85
2024-03-02T22:05:29.831Z,7.03
2024-03-02T22:07:58.259Z,7.34
2024-03-02T22:10:26.539Z,7.17
2024-03-02T22:12:56.136Z,6.76
2024-03-02T22:15:24.495Z,6.72
2024-03-02T22:17:53.815Z,6.58
2024-03-02T22:20:22.080Z,6.62
2024-03-02T22:22:51.613Z,6.62
2024-03-02T22:25:19.896Z,6.51
2024-03-02T22:27:55.126Z,6.69
2024-03-02T22:30:24.170Z,6.79
2024-03-02T22:32:52.890Z,6.98
2024-03-02T22:35:23.875Z,6.88
2024-03-02T22:37:53.828Z,6.80
2024-03-02T22:40:23.844Z,6.71
2024-03-02T22:42:52.144Z,6.78
2024-03-02T22:45:20.520Z,6.72
2024-03-02T22:47:49.040Z,6.71
2024-03-02T22:50:18.224Z,6.52
2024-03-02T22:52:46.485Z,6.40
2024-03-02T22:55:16.229Z,6.34
2024-03-02T22:57:44.521Z,6.27
2024-03-02T23:00:32.221Z,6.23
2024-03-02T23:03:00.515Z,6.36
2024-03-02T23:05:28.732Z,6.33
2024-03-02T23:07:57.195Z,6.62
2024-03-02T23:10:26.971Z,6.62
2024-03-02T23:12:55.306Z,6.53
2024-03-02T23:15:24.273Z,6.53
2024-03-02T23:17:52.515Z,6.66
2024-03-02T23:20:20.792Z,6.64
2024-03-02T23:22:49.235Z,6.55
2024-03-02T23:25:17.579Z,6.44
2024-03-02T23:27:47.324Z,6.58
2024-03-02T23:30:15.588Z,6.51
2024-03-02T23:32:43.797Z,6.54
2024-03-02T23:35:12.305Z,6.49
2024-03-02T23:37:40.607Z,6.37
2024-03-02T23:40:36.648Z,6.34
2024-03-02T23:43:09.097Z,6.34
2024-03-02T23:45:37.413Z,6.25
2024-03-02T23:48:07.197Z,6.29
2024-03-02T23:50:35.468Z,6.20
2024-03-02T23:53:03.925Z,6.20
2024-03-02T23:55:42.916Z,6.24
2024-03-02T23:58:21.251Z,6.29
